< < Back
Terminal Aerodrome Forecast


Current Version              Previous Versions:   1  2  3  4  5  6  7  8  9  

Terminal Aerodrome Forecast

435
FTUS42 KFFC 281700
TAFCSG
TAF
KCSG 281732Z 2818/2918 VRB04KT P6SM FEW060
     FM290000 00000KT P6SM FEW250
     FM291400 18003KT P6SM FEW040=

Latest METAR

235
SAUS70 KWBC 291554
MTRCSG
METAR KCSG 291551Z 11003KT 10SM CLR 31/16 A3006 RMK AO2 SLP174
T03110156


USA.gov is the U.S. government's official web portal to all federal, state and local government web resources and services.